Little Lever, United Kingdom
Current Conditions -  °F | °C
As of 9:20 PM on Tuesday 21 Oct 2014 (Local Time) from EGCC Reporting Station
Few Clouds Few Clouds  
Wind Chill: 39°   Ceiling: Unl
Heat Index: 46°   Visibility: 6mi
Dew Point: 37°   Wind: 18mph
Humidity: 71%   Direction: 300°WNW
Pressure: 30.03"   Gusts: 30mph
Location:  53.56°N, 2.37°W
Report Text: EGCC 212020Z 30016G26KT 9999 FEW045 08/03 Q1017 NOSIG
Loading
Personal Weather Stations






























Interactive Weather Map
Tropical Storm Tracking
New forecast layout! Learn more

10-Day Weather Forecast

Advertisements
Track Severe Weather on mobile